sensor_id;sensor_type;location;lat;lon;timestamp;pressure;altitude;pressure_sealevel;temperature;humidity
64292;BME280;50628;51.008;13.658;2023-10-31T00:02:06;97732.78;;;12.98;100.00
64292;BME280;50628;51.008;13.658;2023-10-31T00:07:08;97725.50;;;12.93;100.00
64292;BME280;50628;51.008;13.658;2023-10-31T00:12:11;97763.81;;;12.86;100.00
64292;BME280;50628;51.008;13.658;2023-10-31T00:17:13;97787.03;;;12.81;100.00
64292;BME280;50628;51.008;13.658;2023-10-31T00:22:15;97785.13;;;12.90;100.00
64292;BME280;50628;51.008;13.658;2023-10-31T00:27:18;97806.69;;;12.77;100.00
64292;BME280;50628;51.008;13.658;2023-10-31T00:32:20;97831.38;;;12.60;100.00
64292;BME280;50628;51.008;13.658;2023-10-31T00:37:22;97826.41;;;12.65;100.00
64292;BME280;50628;51.008;13.658;2023-10-31T00:42:25;97825.69;;;12.71;100.00
64292;BME280;50628;51.008;13.658;2023-10-31T00:47:27;97811.91;;;12.77;100.00
64292;BME280;50628;51.008;13.658;2023-10-31T00:52:29;97780.78;;;12.75;100.00
64292;BME280;50628;51.008;13.658;2023-10-31T00:57:32;97765.28;;;12.74;100.00
64292;BME280;50628;51.008;13.658;2023-10-31T01:02:34;97756.09;;;12.78;100.00
64292;BME280;50628;51.008;13.658;2023-10-31T01:07:36;97753.03;;;12.74;100.00
64292;BME280;50628;51.008;13.658;2023-10-31T01:12:39;97742.50;;;12.83;100.00
64292;BME280;50628;51.008;13.658;2023-10-31T01:17:41;97747.72;;;12.83;100.00
64292;BME280;50628;51.008;13.658;2023-10-31T01:22:43;97747.50;;;12.84;100.00
64292;BME280;50628;51.008;13.658;2023-10-31T01:27:47;97743.03;;;12.78;100.00
64292;BME280;50628;51.008;13.658;2023-10-31T01:32:48;97738.00;;;12.76;100.00
64292;BME280;50628;51.008;13.658;2023-10-31T01:37:50;97735.16;;;12.71;100.00
64292;BME280;50628;51.008;13.658;2023-10-31T01:42:54;97738.06;;;12.62;100.00
64292;BME280;50628;51.008;13.658;2023-10-31T01:47:56;97723.03;;;12.64;100.00
64292;BME280;50628;51.008;13.658;2023-10-31T01:52:59;97735.56;;;12.53;100.00
64292;BME280;50628;51.008;13.658;2023-10-31T01:58:02;97733.09;;;12.45;100.00
64292;BME280;50628;51.008;13.658;2023-10-31T02:03:06;97731.53;;;12.51;100.00
64292;BME280;50628;51.008;13.658;2023-10-31T02:08:08;97733.34;;;12.50;100.00
64292;BME280;50628;51.008;13.658;2023-10-31T02:13:12;97741.88;;;12.44;100.00
64292;BME280;50628;51.008;13.658;2023-10-31T02:18:14;97759.34;;;12.44;100.00
64292;BME280;50628;51.008;13.658;2023-10-31T02:23:18;97758.72;;;12.42;100.00
64292;BME280;50628;51.008;13.658;2023-10-31T02:28:19;97763.94;;;12.42;100.00
64292;BME280;50628;51.008;13.658;2023-10-31T02:33:21;97769.63;;;12.45;100.00
64292;BME280;50628;51.008;13.658;2023-10-31T02:38:24;97768.91;;;12.37;100.00
64292;BME280;50628;51.008;13.658;2023-10-31T02:43:26;97771.97;;;12.40;100.00
64292;BME280;50628;51.008;13.658;2023-10-31T02:48:28;97776.72;;;12.37;100.00
64292;BME280;50628;51.008;13.658;2023-10-31T02:53:33;97777.53;;;12.37;100.00
64292;BME280;50628;51.008;13.658;2023-10-31T02:58:37;97782.56;;;12.39;100.00
64292;BME280;50628;51.008;13.658;2023-10-31T03:03:38;97785.56;;;12.36;100.00
64292;BME280;50628;51.008;13.658;2023-10-31T03:08:42;97795.00;;;12.37;100.00
64292;BME280;50628;51.008;13.658;2023-10-31T03:13:43;97787.53;;;12.33;100.00
64292;BME280;50628;51.008;13.658;2023-10-31T03:18:45;97785.72;;;12.34;100.00
64292;BME280;50628;51.008;13.658;2023-10-31T03:23:50;97771.75;;;12.42;100.00
64292;BME280;50628;51.008;13.658;2023-10-31T03:28:53;97758.72;;;12.42;100.00
64292;BME280;50628;51.008;13.658;2023-10-31T03:33:57;97763.06;;;12.34;100.00
64292;BME280;50628;51.008;13.658;2023-10-31T03:39:00;97756.75;;;12.44;100.00
64292;BME280;50628;51.008;13.658;2023-10-31T03:44:02;97753.88;;;12.39;100.00
64292;BME280;50628;51.008;13.658;2023-10-31T03:49:04;97750.47;;;12.38;100.00
64292;BME280;50628;51.008;13.658;2023-10-31T03:54:09;97753.16;;;12.45;100.00
64292;BME280;50628;51.008;13.658;2023-10-31T03:59:11;97735.16;;;12.50;100.00
64292;BME280;50628;51.008;13.658;2023-10-31T04:04:13;97723.88;;;12.49;100.00
64292;BME280;50628;51.008;13.658;2023-10-31T04:09:16;97725.25;;;12.45;100.00
64292;BME280;50628;51.008;13.658;2023-10-31T04:14:18;97727.88;;;12.45;100.00
64292;BME280;50628;51.008;13.658;2023-10-31T04:19:20;97731.81;;;12.41;100.00
64292;BME280;50628;51.008;13.658;2023-10-31T04:24:23;97735.31;;;12.48;100.00
64292;BME280;50628;51.008;13.658;2023-10-31T04:29:25;97758.81;;;12.48;100.00
64292;BME280;50628;51.008;13.658;2023-10-31T04:34:27;97764.03;;;12.48;100.00
64292;BME280;50628;51.008;13.658;2023-10-31T04:39:30;97769.31;;;12.55;100.00
64292;BME280;50628;51.008;13.658;2023-10-31T04:44:32;97768.88;;;12.51;100.00
64292;BME280;50628;51.008;13.658;2023-10-31T04:49:34;97786.69;;;12.48;100.00
64292;BME280;50628;51.008;13.658;2023-10-31T04:54:37;97766.19;;;12.45;100.00
64292;BME280;50628;51.008;13.658;2023-10-31T04:59:39;97774.56;;;12.40;100.00
64292;BME280;50628;51.008;13.658;2023-10-31T05:04:41;97774.50;;;12.33;100.00
64292;BME280;50628;51.008;13.658;2023-10-31T05:09:44;97768.47;;;12.33;100.00
64292;BME280;50628;51.008;13.658;2023-10-31T05:14:46;97779.59;;;12.42;100.00
64292;BME280;50628;51.008;13.658;2023-10-31T05:19:48;97776.19;;;12.41;100.00
64292;BME280;50628;51.008;13.658;2023-10-31T05:24:51;97780.06;;;12.45;100.00
64292;BME280;50628;51.008;13.658;2023-10-31T05:29:55;97786.44;;;12.43;100.00
64292;BME280;50628;51.008;13.658;2023-10-31T05:34:57;97793.72;;;12.47;100.00
64292;BME280;50628;51.008;13.658;2023-10-31T05:40:00;97800.38;;;12.50;100.00
64292;BME280;50628;51.008;13.658;2023-10-31T05:45:03;97807.75;;;12.46;100.00
64292;BME280;50628;51.008;13.658;2023-10-31T05:50:06;97809.19;;;12.49;100.00
64292;BME280;50628;51.008;13.658;2023-10-31T05:55:09;97822.06;;;12.50;100.00
64292;BME280;50628;51.008;13.658;2023-10-31T06:00:12;97821.06;;;12.51;100.00
64292;BME280;50628;51.008;13.658;2023-10-31T06:05:14;97841.22;;;12.58;100.00
64292;BME280;50628;51.008;13.658;2023-10-31T06:10:17;97851.66;;;12.58;100.00
64292;BME280;50628;51.008;13.658;2023-10-31T06:15:19;97862.34;;;12.63;100.00
64292;BME280;50628;51.008;13.658;2023-10-31T06:20:21;97872.22;;;12.67;100.00
64292;BME280;50628;51.008;13.658;2023-10-31T06:25:24;97901.41;;;12.71;100.00
64292;BME280;50628;51.008;13.658;2023-10-31T06:30:26;97906.53;;;12.64;100.00
64292;BME280;50628;51.008;13.658;2023-10-31T06:35:28;97913.53;;;12.64;100.00
64292;BME280;50628;51.008;13.658;2023-10-31T06:40:31;97920.84;;;12.53;100.00
64292;BME280;50628;51.008;13.658;2023-10-31T06:45:33;97936.34;;;12.40;100.00
64292;BME280;50628;51.008;13.658;2023-10-31T06:50:35;97935.88;;;12.37;100.00
64292;BME280;50628;51.008;13.658;2023-10-31T06:55:38;97959.81;;;12.40;100.00
64292;BME280;50628;51.008;13.658;2023-10-31T07:00:40;97954.13;;;12.37;100.00
64292;BME280;50628;51.008;13.658;2023-10-31T07:05:42;97957.81;;;12.27;100.00
64292;BME280;50628;51.008;13.658;2023-10-31T07:10:45;97966.38;;;12.36;100.00
64292;BME280;50628;51.008;13.658;2023-10-31T07:15:47;97965.38;;;12.37;100.00
64292;BME280;50628;51.008;13.658;2023-10-31T07:20:49;97974.94;;;12.45;100.00
64292;BME280;50628;51.008;13.658;2023-10-31T07:25:52;97996.34;;;12.40;100.00
64292;BME280;50628;51.008;13.658;2023-10-31T07:30:54;97997.50;;;12.38;100.00
64292;BME280;50628;51.008;13.658;2023-10-31T07:35:56;97998.75;;;12.42;100.00
64292;BME280;50628;51.008;13.658;2023-10-31T07:40:59;98021.44;;;12.41;100.00
64292;BME280;50628;51.008;13.658;2023-10-31T07:46:01;98008.78;;;12.53;100.00
64292;BME280;50628;51.008;13.658;2023-10-31T07:51:03;98005.00;;;12.55;100.00
64292;BME280;50628;51.008;13.658;2023-10-31T07:56:14;98016.41;;;12.54;100.00
64292;BME280;50628;51.008;13.658;2023-10-31T08:01:16;98013.09;;;12.61;100.00
64292;BME280;50628;51.008;13.658;2023-10-31T08:06:19;98018.94;;;12.63;100.00
64292;BME280;50628;51.008;13.658;2023-10-31T08:11:22;98038.47;;;12.67;100.00
64292;BME280;50628;51.008;13.658;2023-10-31T08:16:24;98051.25;;;12.62;100.00
64292;BME280;50628;51.008;13.658;2023-10-31T08:21:26;98041.06;;;12.67;100.00
64292;BME280;50628;51.008;13.658;2023-10-31T08:26:35;98027.50;;;12.71;100.00
64292;BME280;50628;51.008;13.658;2023-10-31T08:31:37;98022.72;;;12.75;100.00
64292;BME280;50628;51.008;13.658;2023-10-31T08:36:38;98033.91;;;12.84;100.00
64292;BME280;50628;51.008;13.658;2023-10-31T08:41:50;98044.44;;;12.90;100.00
64292;BME280;50628;51.008;13.658;2023-10-31T08:46:52;98052.44;;;12.89;100.00
64292;BME280;50628;51.008;13.658;2023-10-31T08:51:54;98082.44;;;12.93;100.00
64292;BME280;50628;51.008;13.658;2023-10-31T08:56:57;98052.97;;;12.99;100.00
64292;BME280;50628;51.008;13.658;2023-10-31T09:01:59;98065.88;;;13.01;100.00
64292;BME280;50628;51.008;13.658;2023-10-31T09:07:01;98070.09;;;13.02;100.00
64292;BME280;50628;51.008;13.658;2023-10-31T09:12:05;98090.63;;;13.05;100.00
64292;BME280;50628;51.008;13.658;2023-10-31T09:17:07;98086.56;;;13.02;100.00
64292;BME280;50628;51.008;13.658;2023-10-31T09:22:09;98088.88;;;12.82;100.00
64292;BME280;50628;51.008;13.658;2023-10-31T09:27:12;98120.78;;;12.77;100.00
64292;BME280;50628;51.008;13.658;2023-10-31T09:32:14;98121.53;;;12.63;100.00
64292;BME280;50628;51.008;13.658;2023-10-31T09:37:17;98117.91;;;12.49;100.00
64292;BME280;50628;51.008;13.658;2023-10-31T09:42:20;98123.66;;;12.45;100.00
64292;BME280;50628;51.008;13.658;2023-10-31T09:47:22;98111.31;;;12.39;100.00
64292;BME280;50628;51.008;13.658;2023-10-31T09:52:25;98145.44;;;12.52;100.00
64292;BME280;50628;51.008;13.658;2023-10-31T09:57:28;98138.25;;;12.54;100.00
64292;BME280;50628;51.008;13.658;2023-10-31T10:02:30;98171.88;;;12.49;100.00
64292;BME280;50628;51.008;13.658;2023-10-31T10:07:34;98163.47;;;12.62;100.00
64292;BME280;50628;51.008;13.658;2023-10-31T10:12:37;98164.16;;;12.78;100.00
64292;BME280;50628;51.008;13.658;2023-10-31T10:17:39;98171.78;;;13.03;100.00
64292;BME280;50628;51.008;13.658;2023-10-31T10:22:49;98172.69;;;13.10;100.00
64292;BME280;50628;51.008;13.658;2023-10-31T10:27:52;98176.47;;;13.23;100.00
64292;BME280;50628;51.008;13.658;2023-10-31T10:32:54;98180.81;;;13.15;100.00
64292;BME280;50628;51.008;13.658;2023-10-31T10:37:56;98154.91;;;13.29;100.00
64292;BME280;50628;51.008;13.658;2023-10-31T10:43:05;98151.91;;;13.32;100.00
64292;BME280;50628;51.008;13.658;2023-10-31T10:48:11;98157.84;;;13.40;100.00
64292;BME280;50628;51.008;13.658;2023-10-31T10:53:16;98161.63;;;13.38;100.00
64292;BME280;50628;51.008;13.658;2023-10-31T10:58:33;98141.19;;;13.41;100.00
64292;BME280;50628;51.008;13.658;2023-10-31T11:03:36;98129.47;;;13.37;100.00
64292;BME280;50628;51.008;13.658;2023-10-31T11:08:39;98147.31;;;13.63;100.00
64292;BME280;50628;51.008;13.658;2023-10-31T11:13:43;98158.94;;;13.61;100.00
64292;BME280;50628;51.008;13.658;2023-10-31T11:18:46;98149.13;;;13.48;100.00
64292;BME280;50628;51.008;13.658;2023-10-31T11:23:56;98159.50;;;13.41;100.00
64292;BME280;50628;51.008;13.658;2023-10-31T11:29:06;98173.09;;;13.37;100.00
64292;BME280;50628;51.008;13.658;2023-10-31T11:34:09;98180.44;;;13.93;100.00
64292;BME280;50628;51.008;13.658;2023-10-31T11:39:12;98166.44;;;14.00;100.00
64292;BME280;50628;51.008;13.658;2023-10-31T11:44:16;98166.66;;;13.84;100.00
64292;BME280;50628;51.008;13.658;2023-10-31T11:49:45;98195.44;;;13.54;100.00
64292;BME280;50628;51.008;13.658;2023-10-31T11:54:48;98199.06;;;13.53;100.00
64292;BME280;50628;51.008;13.658;2023-10-31T11:59:51;98194.28;;;13.42;100.00
64292;BME280;50628;51.008;13.658;2023-10-31T12:05:06;98195.22;;;13.26;100.00
64292;BME280;50628;51.008;13.658;2023-10-31T12:10:09;98235.38;;;13.33;100.00
64292;BME280;50628;51.008;13.658;2023-10-31T12:15:13;98248.53;;;13.17;100.00
64292;BME280;50628;51.008;13.658;2023-10-31T12:20:15;98237.13;;;13.18;100.00
64292;BME280;50628;51.008;13.658;2023-10-31T12:25:17;98204.38;;;13.07;100.00
64292;BME280;50628;51.008;13.658;2023-10-31T12:30:21;98224.19;;;13.02;100.00
64292;BME280;50628;51.008;13.658;2023-10-31T12:35:24;98204.22;;;13.09;100.00
64292;BME280;50628;51.008;13.658;2023-10-31T12:40:27;98189.97;;;13.11;100.00
64292;BME280;50628;51.008;13.658;2023-10-31T12:45:30;98231.50;;;13.06;100.00
64292;BME280;50628;51.008;13.658;2023-10-31T12:50:32;98252.91;;;13.02;100.00
64292;BME280;50628;51.008;13.658;2023-10-31T12:55:38;98235.44;;;13.02;100.00
64292;BME280;50628;51.008;13.658;2023-10-31T13:00:42;98255.25;;;12.96;100.00
64292;BME280;50628;51.008;13.658;2023-10-31T13:05:44;98250.81;;;12.97;100.00
64292;BME280;50628;51.008;13.658;2023-10-31T13:10:46;98272.81;;;12.80;100.00
64292;BME280;50628;51.008;13.658;2023-10-31T13:15:49;98282.28;;;12.81;100.00
64292;BME280;50628;51.008;13.658;2023-10-31T13:20:51;98291.44;;;12.76;100.00
64292;BME280;50628;51.008;13.658;2023-10-31T13:25:53;98289.25;;;12.88;100.00
64292;BME280;50628;51.008;13.658;2023-10-31T13:30:56;98312.97;;;12.78;100.00
64292;BME280;50628;51.008;13.658;2023-10-31T13:35:58;98322.69;;;12.62;100.00
64292;BME280;50628;51.008;13.658;2023-10-31T13:41:00;98342.56;;;12.31;100.00
64292;BME280;50628;51.008;13.658;2023-10-31T13:46:04;98357.13;;;12.18;100.00
64292;BME280;50628;51.008;13.658;2023-10-31T13:51:06;98358.28;;;12.07;100.00
64292;BME280;50628;51.008;13.658;2023-10-31T13:56:08;98358.00;;;11.94;100.00
64292;BME280;50628;51.008;13.658;2023-10-31T14:01:11;98358.97;;;11.76;100.00
64292;BME280;50628;51.008;13.658;2023-10-31T14:06:13;98360.91;;;11.74;100.00
64292;BME280;50628;51.008;13.658;2023-10-31T14:11:15;98373.31;;;11.47;100.00
64292;BME280;50628;51.008;13.658;2023-10-31T14:16:19;98365.16;;;11.59;100.00
64292;BME280;50628;51.008;13.658;2023-10-31T14:21:21;98352.16;;;11.67;100.00
64292;BME280;50628;51.008;13.658;2023-10-31T14:26:23;98351.94;;;11.77;100.00
64292;BME280;50628;51.008;13.658;2023-10-31T14:31:26;98370.22;;;11.85;100.00
64292;BME280;50628;51.008;13.658;2023-10-31T14:36:28;98340.88;;;12.07;100.00
64292;BME280;50628;51.008;13.658;2023-10-31T14:41:30;98342.31;;;12.10;100.00
64292;BME280;50628;51.008;13.658;2023-10-31T14:46:35;98329.75;;;12.13;100.00
64292;BME280;50628;51.008;13.658;2023-10-31T14:51:37;98344.09;;;12.18;100.00
64292;BME280;50628;51.008;13.658;2023-10-31T14:56:39;98353.53;;;12.19;100.00
64292;BME280;50628;51.008;13.658;2023-10-31T15:01:44;98355.47;;;12.17;100.00
64292;BME280;50628;51.008;13.658;2023-10-31T15:06:45;98363.00;;;12.11;100.00
64292;BME280;50628;51.008;13.658;2023-10-31T15:11:47;98371.00;;;12.10;100.00
64292;BME280;50628;51.008;13.658;2023-10-31T15:16:51;98384.19;;;12.08;100.00
64292;BME280;50628;51.008;13.658;2023-10-31T15:21:54;98387.66;;;12.01;100.00
64292;BME280;50628;51.008;13.658;2023-10-31T15:26:57;98395.13;;;12.04;100.00
64292;BME280;50628;51.008;13.658;2023-10-31T15:32:00;98396.78;;;12.05;100.00
64292;BME280;50628;51.008;13.658;2023-10-31T15:37:02;98407.69;;;12.00;100.00
64292;BME280;50628;51.008;13.658;2023-10-31T15:42:04;98408.97;;;12.04;100.00
64292;BME280;50628;51.008;13.658;2023-10-31T15:47:08;98428.38;;;12.02;100.00
64292;BME280;50628;51.008;13.658;2023-10-31T15:52:10;98430.50;;;12.06;100.00
64292;BME280;50628;51.008;13.658;2023-10-31T15:57:12;98437.69;;;12.12;100.00
64292;BME280;50628;51.008;13.658;2023-10-31T16:02:19;98442.72;;;12.14;100.00
64292;BME280;50628;51.008;13.658;2023-10-31T16:07:21;98452.69;;;12.02;100.00
64292;BME280;50628;51.008;13.658;2023-10-31T16:12:23;98454.63;;;12.08;100.00
64292;BME280;50628;51.008;13.658;2023-10-31T16:17:26;98472.56;;;12.03;100.00
64292;BME280;50628;51.008;13.658;2023-10-31T16:22:28;98473.38;;;12.12;100.00
64292;BME280;50628;51.008;13.658;2023-10-31T16:27:30;98498.13;;;12.16;100.00
64292;BME280;50628;51.008;13.658;2023-10-31T16:32:34;98519.00;;;12.08;100.00
64292;BME280;50628;51.008;13.658;2023-10-31T16:37:36;98520.97;;;12.14;100.00
64292;BME280;50628;51.008;13.658;2023-10-31T16:42:37;98523.72;;;12.04;100.00
64292;BME280;50628;51.008;13.658;2023-10-31T16:47:41;98544.25;;;11.99;100.00
64292;BME280;50628;51.008;13.658;2023-10-31T16:52:42;98540.50;;;11.94;100.00
64292;BME280;50628;51.008;13.658;2023-10-31T16:57:44;98558.09;;;11.91;100.00
64292;BME280;50628;51.008;13.658;2023-10-31T17:02:48;98570.91;;;11.77;100.00
64292;BME280;50628;51.008;13.658;2023-10-31T17:07:50;98582.81;;;11.71;100.00
64292;BME280;50628;51.008;13.658;2023-10-31T17:12:53;98588.16;;;11.61;100.00
64292;BME280;50628;51.008;13.658;2023-10-31T17:17:56;98607.97;;;11.46;100.00
64292;BME280;50628;51.008;13.658;2023-10-31T17:22:58;98611.53;;;11.37;100.00
64292;BME280;50628;51.008;13.658;2023-10-31T17:28:00;98616.41;;;11.32;100.00
64292;BME280;50628;51.008;13.658;2023-10-31T17:33:03;98621.44;;;11.33;100.00
64292;BME280;50628;51.008;13.658;2023-10-31T17:38:05;98627.97;;;11.37;100.00
64292;BME280;50628;51.008;13.658;2023-10-31T17:43:07;98646.34;;;11.36;100.00
64292;BME280;50628;51.008;13.658;2023-10-31T17:48:10;98649.97;;;11.43;100.00
64292;BME280;50628;51.008;13.658;2023-10-31T17:53:12;98650.91;;;11.34;100.00
64292;BME280;50628;51.008;13.658;2023-10-31T17:58:14;98660.09;;;11.46;100.00
64292;BME280;50628;51.008;13.658;2023-10-31T18:03:17;98659.66;;;11.59;100.00
64292;BME280;50628;51.008;13.658;2023-10-31T18:08:19;98658.34;;;11.55;100.00
64292;BME280;50628;51.008;13.658;2023-10-31T18:13:21;98662.44;;;11.57;100.00
64292;BME280;50628;51.008;13.658;2023-10-31T18:18:24;98665.03;;;11.57;100.00
64292;BME280;50628;51.008;13.658;2023-10-31T18:23:26;98668.94;;;11.61;100.00
64292;BME280;50628;51.008;13.658;2023-10-31T18:28:28;98691.91;;;11.58;100.00
64292;BME280;50628;51.008;13.658;2023-10-31T18:33:31;98691.13;;;11.65;100.00
64292;BME280;50628;51.008;13.658;2023-10-31T18:38:36;98682.63;;;11.63;100.00
64292;BME280;50628;51.008;13.658;2023-10-31T18:43:38;98678.41;;;11.62;100.00
64292;BME280;50628;51.008;13.658;2023-10-31T18:48:41;98685.72;;;11.59;100.00
64292;BME280;50628;51.008;13.658;2023-10-31T18:53:43;98693.69;;;11.57;100.00
64292;BME280;50628;51.008;13.658;2023-10-31T18:58:45;98705.63;;;11.68;100.00
64292;BME280;50628;51.008;13.658;2023-10-31T19:03:48;98694.72;;;11.64;100.00
64292;BME280;50628;51.008;13.658;2023-10-31T19:08:50;98711.50;;;11.70;100.00
64292;BME280;50628;51.008;13.658;2023-10-31T19:13:52;98715.25;;;11.67;100.00
64292;BME280;50628;51.008;13.658;2023-10-31T19:18:56;98724.03;;;11.66;100.00
64292;BME280;50628;51.008;13.658;2023-10-31T19:23:58;98730.69;;;11.61;100.00
64292;BME280;50628;51.008;13.658;2023-10-31T19:28:59;98732.47;;;11.60;100.00
64292;BME280;50628;51.008;13.658;2023-10-31T19:34:03;98741.31;;;11.67;100.00
64292;BME280;50628;51.008;13.658;2023-10-31T19:39:05;98748.81;;;11.70;100.00
64292;BME280;50628;51.008;13.658;2023-10-31T19:44:06;98751.06;;;11.65;100.00
64292;BME280;50628;51.008;13.658;2023-10-31T19:49:10;98754.66;;;11.64;100.00
64292;BME280;50628;51.008;13.658;2023-10-31T19:54:12;98749.59;;;11.63;100.00
64292;BME280;50628;51.008;13.658;2023-10-31T19:59:13;98755.16;;;11.68;100.00
64292;BME280;50628;51.008;13.658;2023-10-31T20:04:17;98757.75;;;11.68;100.00
64292;BME280;50628;51.008;13.658;2023-10-31T20:09:19;98762.50;;;11.73;100.00
64292;BME280;50628;51.008;13.658;2023-10-31T20:14:21;98765.53;;;11.60;100.00
64292;BME280;50628;51.008;13.658;2023-10-31T20:19:24;98770.22;;;11.56;100.00
64292;BME280;50628;51.008;13.658;2023-10-31T20:24:26;98768.59;;;11.55;100.00
64292;BME280;50628;51.008;13.658;2023-10-31T20:29:27;98782.44;;;11.56;100.00
64292;BME280;50628;51.008;13.658;2023-10-31T20:34:31;98782.81;;;11.61;100.00
64292;BME280;50628;51.008;13.658;2023-10-31T20:39:34;98794.34;;;11.58;100.00
64292;BME280;50628;51.008;13.658;2023-10-31T20:44:36;98802.69;;;11.62;100.00
64292;BME280;50628;51.008;13.658;2023-10-31T20:49:39;98805.31;;;11.62;100.00
64292;BME280;50628;51.008;13.658;2023-10-31T20:54:41;98797.50;;;11.62;100.00
64292;BME280;50628;51.008;13.658;2023-10-31T20:59:43;98807.78;;;11.45;100.00
64292;BME280;50628;51.008;13.658;2023-10-31T21:04:47;98822.91;;;11.42;100.00
64292;BME280;50628;51.008;13.658;2023-10-31T21:09:49;98818.28;;;11.36;100.00
64292;BME280;50628;51.008;13.658;2023-10-31T21:14:51;98833.94;;;11.36;100.00
64292;BME280;50628;51.008;13.658;2023-10-31T21:19:54;98825.56;;;11.24;100.00
64292;BME280;50628;51.008;13.658;2023-10-31T21:24:56;98840.28;;;11.15;100.00
64292;BME280;50628;51.008;13.658;2023-10-31T21:29:58;98841.84;;;11.08;100.00
64292;BME280;50628;51.008;13.658;2023-10-31T21:35:02;98839.84;;;11.02;100.00
64292;BME280;50628;51.008;13.658;2023-10-31T21:40:05;98832.91;;;10.93;100.00
64292;BME280;50628;51.008;13.658;2023-10-31T21:45:08;98839.66;;;10.86;100.00
64292;BME280;50628;51.008;13.658;2023-10-31T21:50:12;98845.97;;;10.83;100.00
64292;BME280;50628;51.008;13.658;2023-10-31T21:55:14;98858.34;;;10.81;100.00
64292;BME280;50628;51.008;13.658;2023-10-31T22:00:16;98861.75;;;10.81;100.00
64292;BME280;50628;51.008;13.658;2023-10-31T22:05:19;98868.22;;;10.77;100.00
64292;BME280;50628;51.008;13.658;2023-10-31T22:10:21;98861.88;;;10.62;100.00
64292;BME280;50628;51.008;13.658;2023-10-31T22:15:23;98870.09;;;10.57;100.00
64292;BME280;50628;51.008;13.658;2023-10-31T22:20:27;98870.28;;;10.56;100.00
64292;BME280;50628;51.008;13.658;2023-10-31T22:25:29;98877.81;;;10.49;100.00
64292;BME280;50628;51.008;13.658;2023-10-31T22:30:31;98886.53;;;10.58;100.00
64292;BME280;50628;51.008;13.658;2023-10-31T22:35:34;98891.22;;;10.54;100.00
64292;BME280;50628;51.008;13.658;2023-10-31T22:40:36;98883.50;;;10.63;100.00
64292;BME280;50628;51.008;13.658;2023-10-31T22:45:38;98882.38;;;10.65;100.00
64292;BME280;50628;51.008;13.658;2023-10-31T22:50:41;98880.16;;;10.70;100.00
64292;BME280;50628;51.008;13.658;2023-10-31T22:55:43;98898.94;;;10.74;100.00
64292;BME280;50628;51.008;13.658;2023-10-31T23:00:45;98898.38;;;10.70;100.00
64292;BME280;50628;51.008;13.658;2023-10-31T23:05:48;98905.03;;;10.82;100.00
64292;BME280;50628;51.008;13.658;2023-10-31T23:10:50;98904.09;;;10.83;100.00
64292;BME280;50628;51.008;13.658;2023-10-31T23:15:52;98910.13;;;10.84;100.00
64292;BME280;50628;51.008;13.658;2023-10-31T23:20:55;98904.09;;;10.83;100.00
64292;BME280;50628;51.008;13.658;2023-10-31T23:25:57;98906.88;;;10.72;100.00
64292;BME280;50628;51.008;13.658;2023-10-31T23:30:59;98914.25;;;10.77;100.00
64292;BME280;50628;51.008;13.658;2023-10-31T23:36:02;98922.63;;;10.71;100.00
64292;BME280;50628;51.008;13.658;2023-10-31T23:41:04;98917.59;;;10.69;100.00
64292;BME280;50628;51.008;13.658;2023-10-31T23:46:06;98924.03;;;10.65;100.00
64292;BME280;50628;51.008;13.658;2023-10-31T23:51:10;98913.53;;;10.57;100.00
64292;BME280;50628;51.008;13.658;2023-10-31T23:56:12;98917.09;;;10.56;100.00
